Flight Track Log - Related Links

Times and Time Zones

All times are in EDT time to prevent confusion due to time zone crossing. See the N4920G flight status page for this flight to view local times or setup timezone preferences in your user account.

Time Position Orientation Groundspeed Altitude Reporting Facility
EDT Latitude Longitude Course Direction KTS MPH feet Rate Location/Type
Fri 04:03:50 PM 40.4672 -86.9372 35° Northeast 95 109 2,100  Level Chicago Center
Fri 04:04:44 PM 40.4867 -86.9192 35° Northeast 100 115 2,500 397 Climbing Chicago Center
Fri 04:05:51 PM 40.5147 -86.8964 32° Northeast 103 119 2,900 189 Climbing Chicago Center
Fri 04:06:51 PM 40.5447 -86.8711 33° Northeast 121 139 2,900 -50 Level Chicago Center
Fri 04:07:52 PM 40.5767 -86.8594 16° North 119 137 2,800 -49 Descending Chicago Center
Fri 04:08:53 PM 40.6083 -86.8506 12° North 115 132 2,800  Level Chicago Center
Fri 04:09:53 PM 40.6400 -86.8417 12° North 115 132 2,800  Level Chicago Center
Fri 04:10:54 PM 40.6739 -86.8275 18° North 121 139 2,800  Level Chicago Center
Fri 04:11:54 PM 40.7056 -86.8186 12° North 120 138 2,800  Level Chicago Center
Fri 04:12:55 PM 40.7372 -86.8069 16° North 119 137 2,800 49 Level Chicago Center
Fri 04:13:56 PM 40.7692 -86.7925 19° North 113 130 2,900 50 Climbing Chicago Center
Fri 04:14:56 PM 40.7989 -86.7781 20° North 118 136 2,900 -50 Level Chicago Center
Fri 04:15:57 PM 40.8286 -86.7608 24° Northeast 118 136 2,800 -50 Descending Chicago Center
Fri 04:16:57 PM 40.8606 -86.7464 19° North 119 137 2,800 50 Level Chicago Center
Fri 04:17:58 PM 40.8903 -86.7289 24° Northeast 116 133 2,900 -9 Climbing Chicago Center
Fri 04:19:00 PM 40.9287 -86.7020 28° Northeast  Level FlightAware Approximate
Fri 04:26:00 PM 41.1993 -86.5469 19° North  Level FlightAware Approximate
Fri 04:27:00 PM 41.2390 -86.5283 19° North  Level FlightAware Approximate
Fri 04:27:30 PM 41.1606 -86.6122 19° North 112 129 2,700  Level Chicago Center
Fri 04:28:00 PM 41.2787 -86.5096 19° North  Level FlightAware Approximate
Fri 04:28:32 PM 41.1900 -86.5928 26° Northeast 117 135 2,700  Level Chicago Center
Fri 04:29:00 PM 41.3184 -86.4910 19° North  Level FlightAware Approximate
Fri 04:29:34 PM 41.2200 -86.5681 32° Northeast 122 140 2,700  Level Chicago Center
Fri 04:30:00 PM 41.3581 -86.4723 19° North  Level FlightAware Approximate
Fri 04:30:35 PM 41.2489 -86.5433 33° Northeast 124 143 2,600  Level Chicago Center
Fri 04:31:00 PM 41.3977 -86.4536 19° North  Level FlightAware Approximate
Fri 04:31:38 PM 41.2744 -86.5200 34° Northeast 119 137 2,800  Level Chicago Center
Fri 04:32:00 PM 41.4374 -86.4349 19° North  Level FlightAware Approximate
Fri 04:32:40 PM 41.3008 -86.4939 37° Northeast 118 136 2,700  Level Chicago Center
Fri 04:33:42 PM 41.3356 -86.4803 16° North 112 129 2,700  Level Chicago Center
Fri 04:34:44 PM 41.3675 -86.4711 12° North 112 129 2,700  Level Chicago Center
Fri 04:35:46 PM 41.3975 -86.4569 20° North 115 132 2,700  Level Chicago Center
Fri 04:36:48 PM 41.4261 -86.4392 25° Northeast 114 131 2,700 48 Level Chicago Center
Fri 04:37:50 PM 41.4542 -86.4197 27° Northeast 114 131 2,800 48 Climbing Chicago Center
Fri 04:38:52 PM 41.4831 -86.4019 25° Northeast 114 131 2,800  Level Chicago Center
Fri 04:39:54 PM 41.5133 -86.3564 48° Northeast 128 147 2,800  Level Chicago Center
Fri 04:40:56 PM 41.5403 -86.3228 43° Northeast 133 153 2,800 -48 Level Chicago Center
Fri 04:41:58 PM 41.5683 -86.2925 39° Northeast 131 151 2,700 -97 Descending Chicago Center
Fri 04:43:00 PM 41.5981 -86.2697 30° Northeast 127 146 2,600 -145 Descending Chicago Center
Fri 04:44:02 PM 41.6308 -86.2622 10° North 122 140 2,400 -145 Descending Chicago Center
Fri 04:45:04 PM 41.6619 -86.2575 North 117 135 2,300 -339 Descending Chicago Center
Fri 04:46:06 PM 41.6981 -86.2586 359° North 113 130 1,700 -581 Descending Chicago Center

Login

Don't have an account? Register now (free) for customized features, flight alerts, and more!